sensor_id;sensor_type;location;lat;lon;timestamp;P1;durP1;ratioP1;P2;durP2;ratioP2
31734;SDS011;18313;48.518;9.124;2022-08-20T00:00:46;4.25;;;2.92;;
31734;SDS011;18313;48.518;9.124;2022-08-20T00:03:24;3.25;;;2.72;;
31734;SDS011;18313;48.518;9.124;2022-08-20T00:05:55;5.22;;;3.08;;
31734;SDS011;18313;48.518;9.124;2022-08-20T00:08:25;5.07;;;3.15;;
31734;SDS011;18313;48.518;9.124;2022-08-20T00:10:53;3.88;;;3.10;;
31734;SDS011;18313;48.518;9.124;2022-08-20T00:13:32;5.78;;;3.28;;
31734;SDS011;18313;48.518;9.124;2022-08-20T00:16:03;5.65;;;3.00;;
31734;SDS011;18313;48.518;9.124;2022-08-20T00:18:31;4.85;;;3.45;;
31734;SDS011;18313;48.518;9.124;2022-08-20T00:20:58;6.57;;;3.47;;
31734;SDS011;18313;48.518;9.124;2022-08-20T00:23:26;5.20;;;3.50;;
31734;SDS011;18313;48.518;9.124;2022-08-20T00:25:53;4.80;;;3.35;;
31734;SDS011;18313;48.518;9.124;2022-08-20T00:28:20;5.43;;;3.70;;
31734;SDS011;18313;48.518;9.124;2022-08-20T00:30:48;5.70;;;3.88;;
31734;SDS011;18313;48.518;9.124;2022-08-20T00:33:16;6.03;;;4.00;;
31734;SDS011;18313;48.518;9.124;2022-08-20T00:35:47;5.78;;;4.38;;
31734;SDS011;18313;48.518;9.124;2022-08-20T00:38:17;6.18;;;4.68;;
31734;SDS011;18313;48.518;9.124;2022-08-20T00:40:49;6.38;;;4.60;;
31734;SDS011;18313;48.518;9.124;2022-08-20T00:43:29;5.70;;;4.57;;
31734;SDS011;18313;48.518;9.124;2022-08-20T00:46:04;6.25;;;4.68;;
31734;SDS011;18313;48.518;9.124;2022-08-20T00:48:35;5.55;;;4.80;;
31734;SDS011;18313;48.518;9.124;2022-08-20T00:51:13;6.45;;;4.28;;
31734;SDS011;18313;48.518;9.124;2022-08-20T00:54:00;5.45;;;3.78;;
31734;SDS011;18313;48.518;9.124;2022-08-20T00:56:32;5.65;;;3.80;;
31734;SDS011;18313;48.518;9.124;2022-08-20T00:59:00;6.70;;;4.00;;
31734;SDS011;18313;48.518;9.124;2022-08-20T01:01:29;6.40;;;3.63;;
31734;SDS011;18313;48.518;9.124;2022-08-20T01:04:19;4.32;;;3.45;;
31734;SDS011;18313;48.518;9.124;2022-08-20T01:06:46;5.85;;;3.67;;
31734;SDS011;18313;48.518;9.124;2022-08-20T01:09:13;4.82;;;4.05;;
31734;SDS011;18313;48.518;9.124;2022-08-20T01:11:40;5.97;;;4.60;;
31734;SDS011;18313;48.518;9.124;2022-08-20T01:14:08;6.60;;;5.00;;
31734;SDS011;18313;48.518;9.124;2022-08-20T01:17:00;6.90;;;5.60;;
31734;SDS011;18313;48.518;9.124;2022-08-20T01:19:32;8.35;;;4.88;;
31734;SDS011;18313;48.518;9.124;2022-08-20T01:22:03;7.32;;;5.30;;
31734;SDS011;18313;48.518;9.124;2022-08-20T01:24:54;8.55;;;5.25;;
31734;SDS011;18313;48.518;9.124;2022-08-20T01:27:33;5.47;;;4.55;;
31734;SDS011;18313;48.518;9.124;2022-08-20T01:30:08;8.05;;;4.72;;
31734;SDS011;18313;48.518;9.124;2022-08-20T01:32:36;7.57;;;4.85;;
31734;SDS011;18313;48.518;9.124;2022-08-20T01:35:03;6.80;;;4.72;;
31734;SDS011;18313;48.518;9.124;2022-08-20T01:37:30;8.25;;;5.13;;
31734;SDS011;18313;48.518;9.124;2022-08-20T01:39:57;8.93;;;4.97;;
31734;SDS011;18313;48.518;9.124;2022-08-20T01:42:26;7.97;;;5.50;;
31734;SDS011;18313;48.518;9.124;2022-08-20T01:45:00;8.23;;;5.18;;
31734;SDS011;18313;48.518;9.124;2022-08-20T01:47:30;6.00;;;4.85;;
31734;SDS011;18313;48.518;9.124;2022-08-20T01:52:41;6.38;;;5.20;;
31734;SDS011;18313;48.518;9.124;2022-08-20T01:55:22;8.20;;;5.73;;
31734;SDS011;18313;48.518;9.124;2022-08-20T01:57:49;7.07;;;5.75;;
31734;SDS011;18313;48.518;9.124;2022-08-20T02:00:17;7.88;;;6.07;;
31734;SDS011;18313;48.518;9.124;2022-08-20T02:02:47;10.63;;;5.72;;
31734;SDS011;18313;48.518;9.124;2022-08-20T02:05:15;8.15;;;6.30;;
31734;SDS011;18313;48.518;9.124;2022-08-20T02:07:42;8.57;;;6.85;;
31734;SDS011;18313;48.518;9.124;2022-08-20T02:10:10;8.98;;;6.95;;
31734;SDS011;18313;48.518;9.124;2022-08-20T02:12:39;8.95;;;6.50;;
31734;SDS011;18313;48.518;9.124;2022-08-20T02:15:07;7.85;;;6.63;;
31734;SDS011;18313;48.518;9.124;2022-08-20T02:17:36;9.05;;;7.20;;
31734;SDS011;18313;48.518;9.124;2022-08-20T02:20:08;8.52;;;6.93;;
31734;SDS011;18313;48.518;9.124;2022-08-20T02:22:43;9.07;;;6.80;;
31734;SDS011;18313;48.518;9.124;2022-08-20T02:25:16;8.93;;;6.68;;
31734;SDS011;18313;48.518;9.124;2022-08-20T02:27:48;10.23;;;6.28;;
31734;SDS011;18313;48.518;9.124;2022-08-20T02:30:22;8.80;;;6.43;;
31734;SDS011;18313;48.518;9.124;2022-08-20T02:32:55;9.27;;;6.80;;
31734;SDS011;18313;48.518;9.124;2022-08-20T02:35:23;8.68;;;6.18;;
31734;SDS011;18313;48.518;9.124;2022-08-20T02:37:51;7.07;;;5.75;;
31734;SDS011;18313;48.518;9.124;2022-08-20T02:40:20;11.23;;;6.72;;
31734;SDS011;18313;48.518;9.124;2022-08-20T02:42:55;7.25;;;6.30;;
31734;SDS011;18313;48.518;9.124;2022-08-20T02:45:23;7.82;;;6.65;;
31734;SDS011;18313;48.518;9.124;2022-08-20T02:47:50;9.05;;;7.15;;
31734;SDS011;18313;48.518;9.124;2022-08-20T02:50:22;8.70;;;6.93;;
31734;SDS011;18313;48.518;9.124;2022-08-20T02:52:49;9.45;;;6.90;;
31734;SDS011;18313;48.518;9.124;2022-08-20T02:55:17;8.80;;;6.50;;
31734;SDS011;18313;48.518;9.124;2022-08-20T02:57:56;9.13;;;6.63;;
31734;SDS011;18313;48.518;9.124;2022-08-20T03:00:26;7.43;;;6.43;;
31734;SDS011;18313;48.518;9.124;2022-08-20T03:03:05;8.57;;;6.45;;
31734;SDS011;18313;48.518;9.124;2022-08-20T03:05:33;9.15;;;6.40;;
31734;SDS011;18313;48.518;9.124;2022-08-20T03:08:01;7.72;;;6.35;;
31734;SDS011;18313;48.518;9.124;2022-08-20T03:10:30;8.27;;;6.45;;
31734;SDS011;18313;48.518;9.124;2022-08-20T03:12:59;7.55;;;6.38;;
31734;SDS011;18313;48.518;9.124;2022-08-20T03:15:28;7.72;;;5.90;;
31734;SDS011;18313;48.518;9.124;2022-08-20T03:17:56;8.02;;;5.75;;
31734;SDS011;18313;48.518;9.124;2022-08-20T03:20:24;9.05;;;6.15;;
31734;SDS011;18313;48.518;9.124;2022-08-20T03:22:52;8.43;;;6.13;;
31734;SDS011;18313;48.518;9.124;2022-08-20T03:25:19;8.68;;;6.47;;
31734;SDS011;18313;48.518;9.124;2022-08-20T03:27:46;8.32;;;6.45;;
31734;SDS011;18313;48.518;9.124;2022-08-20T03:30:19;8.23;;;6.00;;
31734;SDS011;18313;48.518;9.124;2022-08-20T03:32:47;7.22;;;6.30;;
31734;SDS011;18313;48.518;9.124;2022-08-20T03:35:15;9.25;;;6.90;;
31734;SDS011;18313;48.518;9.124;2022-08-20T03:37:43;8.65;;;6.82;;
31734;SDS011;18313;48.518;9.124;2022-08-20T03:40:15;9.32;;;7.10;;
31734;SDS011;18313;48.518;9.124;2022-08-20T03:42:47;7.97;;;6.13;;
31734;SDS011;18313;48.518;9.124;2022-08-20T03:45:14;12.68;;;6.82;;
31734;SDS011;18313;48.518;9.124;2022-08-20T03:47:46;7.80;;;6.53;;
31734;SDS011;18313;48.518;9.124;2022-08-20T03:50:13;8.77;;;6.47;;
31734;SDS011;18313;48.518;9.124;2022-08-20T03:52:52;10.35;;;6.70;;
31734;SDS011;18313;48.518;9.124;2022-08-20T03:55:20;8.40;;;6.78;;
31734;SDS011;18313;48.518;9.124;2022-08-20T03:57:48;9.70;;;6.88;;
31734;SDS011;18313;48.518;9.124;2022-08-20T04:00:19;10.68;;;7.28;;
31734;SDS011;18313;48.518;9.124;2022-08-20T04:02:54;10.02;;;7.05;;
31734;SDS011;18313;48.518;9.124;2022-08-20T04:05:26;12.05;;;7.18;;
31734;SDS011;18313;48.518;9.124;2022-08-20T04:07:55;10.10;;;7.95;;
31734;SDS011;18313;48.518;9.124;2022-08-20T04:10:28;8.23;;;6.65;;
31734;SDS011;18313;48.518;9.124;2022-08-20T04:12:56;8.77;;;7.50;;
31734;SDS011;18313;48.518;9.124;2022-08-20T04:15:23;8.68;;;7.10;;
31734;SDS011;18313;48.518;9.124;2022-08-20T04:17:49;9.85;;;6.60;;
31734;SDS011;18313;48.518;9.124;2022-08-20T04:20:20;8.80;;;6.60;;
31734;SDS011;18313;48.518;9.124;2022-08-20T04:22:49;8.02;;;6.45;;
31734;SDS011;18313;48.518;9.124;2022-08-20T04:25:25;10.48;;;6.70;;
31734;SDS011;18313;48.518;9.124;2022-08-20T04:27:55;12.40;;;7.50;;
31734;SDS011;18313;48.518;9.124;2022-08-20T04:30:24;7.72;;;6.80;;
31734;SDS011;18313;48.518;9.124;2022-08-20T04:32:51;8.20;;;6.57;;
31734;SDS011;18313;48.518;9.124;2022-08-20T04:35:21;8.70;;;5.90;;
31734;SDS011;18313;48.518;9.124;2022-08-20T04:37:56;7.97;;;6.90;;
31734;SDS011;18313;48.518;9.124;2022-08-20T04:40:29;7.63;;;6.53;;
31734;SDS011;18313;48.518;9.124;2022-08-20T04:43:15;7.53;;;6.40;;
31734;SDS011;18313;48.518;9.124;2022-08-20T04:45:42;8.18;;;6.22;;
31734;SDS011;18313;48.518;9.124;2022-08-20T04:48:10;7.72;;;6.53;;
31734;SDS011;18313;48.518;9.124;2022-08-20T04:50:41;7.57;;;5.70;;
31734;SDS011;18313;48.518;9.124;2022-08-20T04:53:10;9.63;;;6.00;;
31734;SDS011;18313;48.518;9.124;2022-08-20T04:55:40;7.88;;;6.38;;
31734;SDS011;18313;48.518;9.124;2022-08-20T04:58:09;7.50;;;5.72;;
31734;SDS011;18313;48.518;9.124;2022-08-20T05:00:38;7.75;;;6.03;;
31734;SDS011;18313;48.518;9.124;2022-08-20T05:03:05;7.15;;;5.90;;
31734;SDS011;18313;48.518;9.124;2022-08-20T05:05:33;7.45;;;6.10;;
31734;SDS011;18313;48.518;9.124;2022-08-20T05:08:03;8.88;;;5.90;;
31734;SDS011;18313;48.518;9.124;2022-08-20T05:10:41;14.88;;;6.07;;
31734;SDS011;18313;48.518;9.124;2022-08-20T05:13:08;10.15;;;6.75;;
31734;SDS011;18313;48.518;9.124;2022-08-20T05:15:36;13.50;;;5.85;;
31734;SDS011;18313;48.518;9.124;2022-08-20T05:18:04;8.40;;;6.30;;
31734;SDS011;18313;48.518;9.124;2022-08-20T05:20:37;7.90;;;6.10;;
31734;SDS011;18313;48.518;9.124;2022-08-20T05:23:06;8.98;;;6.40;;
31734;SDS011;18313;48.518;9.124;2022-08-20T05:25:35;7.60;;;5.97;;
31734;SDS011;18313;48.518;9.124;2022-08-20T05:28:04;10.07;;;5.88;;
31734;SDS011;18313;48.518;9.124;2022-08-20T05:30:35;9.82;;;6.88;;
31734;SDS011;18313;48.518;9.124;2022-08-20T05:33:05;7.55;;;5.82;;
31734;SDS011;18313;48.518;9.124;2022-08-20T05:35:34;10.30;;;6.22;;
31734;SDS011;18313;48.518;9.124;2022-08-20T05:38:06;7.03;;;5.97;;
31734;SDS011;18313;48.518;9.124;2022-08-20T05:40:37;8.80;;;6.10;;
31734;SDS011;18313;48.518;9.124;2022-08-20T05:43:06;9.57;;;5.82;;
31734;SDS011;18313;48.518;9.124;2022-08-20T05:45:34;7.13;;;5.57;;
31734;SDS011;18313;48.518;9.124;2022-08-20T05:48:03;9.02;;;6.03;;
31734;SDS011;18313;48.518;9.124;2022-08-20T05:50:31;7.93;;;6.00;;
31734;SDS011;18313;48.518;9.124;2022-08-20T05:52:58;8.25;;;6.40;;
31734;SDS011;18313;48.518;9.124;2022-08-20T05:55:28;9.75;;;6.35;;
31734;SDS011;18313;48.518;9.124;2022-08-20T05:57:56;7.75;;;5.95;;
31734;SDS011;18313;48.518;9.124;2022-08-20T06:00:23;8.85;;;6.13;;
31734;SDS011;18313;48.518;9.124;2022-08-20T06:02:50;8.40;;;5.72;;
31734;SDS011;18313;48.518;9.124;2022-08-20T06:05:36;6.80;;;5.72;;
31734;SDS011;18313;48.518;9.124;2022-08-20T06:08:04;7.60;;;6.00;;
31734;SDS011;18313;48.518;9.124;2022-08-20T06:10:33;8.18;;;6.00;;
31734;SDS011;18313;48.518;9.124;2022-08-20T06:13:02;7.85;;;5.70;;
31734;SDS011;18313;48.518;9.124;2022-08-20T06:15:30;9.20;;;6.03;;
31734;SDS011;18313;48.518;9.124;2022-08-20T06:17:57;7.22;;;5.60;;
31734;SDS011;18313;48.518;9.124;2022-08-20T06:20:25;10.88;;;5.53;;
31734;SDS011;18313;48.518;9.124;2022-08-20T06:22:54;8.95;;;5.60;;
31734;SDS011;18313;48.518;9.124;2022-08-20T06:25:21;6.60;;;5.63;;
31734;SDS011;18313;48.518;9.124;2022-08-20T06:27:48;7.07;;;5.15;;
31734;SDS011;18313;48.518;9.124;2022-08-20T06:30:15;8.40;;;5.50;;
31734;SDS011;18313;48.518;9.124;2022-08-20T06:32:42;7.88;;;5.40;;
31734;SDS011;18313;48.518;9.124;2022-08-20T06:35:09;11.57;;;6.40;;
31734;SDS011;18313;48.518;9.124;2022-08-20T06:37:41;6.25;;;5.18;;
31734;SDS011;18313;48.518;9.124;2022-08-20T06:40:09;6.47;;;5.22;;
31734;SDS011;18313;48.518;9.124;2022-08-20T06:42:41;8.52;;;5.18;;
31734;SDS011;18313;48.518;9.124;2022-08-20T06:45:14;6.85;;;5.53;;
31734;SDS011;18313;48.518;9.124;2022-08-20T06:47:44;7.53;;;5.82;;
31734;SDS011;18313;48.518;9.124;2022-08-20T06:50:13;7.20;;;5.35;;
31734;SDS011;18313;48.518;9.124;2022-08-20T06:52:43;7.93;;;5.55;;
31734;SDS011;18313;48.518;9.124;2022-08-20T06:55:28;6.40;;;5.05;;
31734;SDS011;18313;48.518;9.124;2022-08-20T06:57:56;6.05;;;5.22;;
31734;SDS011;18313;48.518;9.124;2022-08-20T07:00:24;6.22;;;4.95;;
31734;SDS011;18313;48.518;9.124;2022-08-20T07:02:53;8.35;;;5.15;;
31734;SDS011;18313;48.518;9.124;2022-08-20T07:05:20;6.13;;;5.03;;
31734;SDS011;18313;48.518;9.124;2022-08-20T07:07:47;6.65;;;5.13;;
31734;SDS011;18313;48.518;9.124;2022-08-20T07:10:16;7.63;;;5.40;;
31734;SDS011;18313;48.518;9.124;2022-08-20T07:12:44;7.22;;;4.95;;
31734;SDS011;18313;48.518;9.124;2022-08-20T07:15:12;5.63;;;4.78;;
31734;SDS011;18313;48.518;9.124;2022-08-20T07:17:40;6.10;;;4.78;;
31734;SDS011;18313;48.518;9.124;2022-08-20T07:20:09;7.32;;;5.43;;
31734;SDS011;18313;48.518;9.124;2022-08-20T07:22:40;6.10;;;5.30;;
31734;SDS011;18313;48.518;9.124;2022-08-20T07:25:09;6.93;;;5.00;;
31734;SDS011;18313;48.518;9.124;2022-08-20T07:27:37;7.13;;;4.72;;
31734;SDS011;18313;48.518;9.124;2022-08-20T07:30:06;7.30;;;4.78;;
31734;SDS011;18313;48.518;9.124;2022-08-20T07:32:54;7.78;;;5.10;;
31734;SDS011;18313;48.518;9.124;2022-08-20T07:35:21;7.65;;;4.95;;
31734;SDS011;18313;48.518;9.124;2022-08-20T07:37:49;6.38;;;5.43;;
31734;SDS011;18313;48.518;9.124;2022-08-20T07:40:21;6.93;;;4.78;;
31734;SDS011;18313;48.518;9.124;2022-08-20T07:42:53;7.00;;;5.15;;
31734;SDS011;18313;48.518;9.124;2022-08-20T07:45:21;7.05;;;4.95;;
31734;SDS011;18313;48.518;9.124;2022-08-20T07:47:49;7.60;;;4.78;;
31734;SDS011;18313;48.518;9.124;2022-08-20T07:50:19;7.72;;;5.03;;
31734;SDS011;18313;48.518;9.124;2022-08-20T07:52:48;11.85;;;5.35;;
31734;SDS011;18313;48.518;9.124;2022-08-20T07:55:19;6.88;;;5.18;;
31734;SDS011;18313;48.518;9.124;2022-08-20T07:57:47;7.97;;;5.40;;
31734;SDS011;18313;48.518;9.124;2022-08-20T08:00:16;8.30;;;5.55;;
31734;SDS011;18313;48.518;9.124;2022-08-20T08:02:46;6.50;;;5.13;;
31734;SDS011;18313;48.518;9.124;2022-08-20T08:05:13;13.68;;;5.95;;
31734;SDS011;18313;48.518;9.124;2022-08-20T08:07:40;6.30;;;5.55;;
31734;SDS011;18313;48.518;9.124;2022-08-20T08:10:08;9.38;;;5.95;;
31734;SDS011;18313;48.518;9.124;2022-08-20T08:12:40;6.47;;;5.15;;
31734;SDS011;18313;48.518;9.124;2022-08-20T08:15:10;7.95;;;6.00;;
31734;SDS011;18313;48.518;9.124;2022-08-20T08:17:41;7.38;;;5.18;;
31734;SDS011;18313;48.518;9.124;2022-08-20T08:20:09;7.28;;;5.90;;
31734;SDS011;18313;48.518;9.124;2022-08-20T08:22:37;7.32;;;5.13;;
31734;SDS011;18313;48.518;9.124;2022-08-20T08:25:09;6.35;;;5.07;;
31734;SDS011;18313;48.518;9.124;2022-08-20T08:27:38;8.43;;;5.32;;
31734;SDS011;18313;48.518;9.124;2022-08-20T08:30:06;6.03;;;5.18;;
31734;SDS011;18313;48.518;9.124;2022-08-20T08:32:37;8.38;;;5.68;;
31734;SDS011;18313;48.518;9.124;2022-08-20T08:35:24;6.85;;;5.03;;
31734;SDS011;18313;48.518;9.124;2022-08-20T08:37:51;8.35;;;5.95;;
31734;SDS011;18313;48.518;9.124;2022-08-20T08:40:22;8.55;;;5.93;;
31734;SDS011;18313;48.518;9.124;2022-08-20T08:42:50;6.97;;;5.50;;
31734;SDS011;18313;48.518;9.124;2022-08-20T08:47:54;7.90;;;5.05;;
31734;SDS011;18313;48.518;9.124;2022-08-20T08:50:27;8.13;;;4.80;;
31734;SDS011;18313;48.518;9.124;2022-08-20T08:53:18;5.53;;;4.70;;
31734;SDS011;18313;48.518;9.124;2022-08-20T08:55:49;5.75;;;4.82;;
31734;SDS011;18313;48.518;9.124;2022-08-20T08:58:16;5.75;;;4.10;;
31734;SDS011;18313;48.518;9.124;2022-08-20T09:00:43;8.15;;;4.50;;
31734;SDS011;18313;48.518;9.124;2022-08-20T09:03:27;5.63;;;4.28;;
31734;SDS011;18313;48.518;9.124;2022-08-20T09:05:59;6.15;;;4.40;;
31734;SDS011;18313;48.518;9.124;2022-08-20T09:08:39;5.47;;;3.75;;
31734;SDS011;18313;48.518;9.124;2022-08-20T09:11:13;5.13;;;3.75;;
31734;SDS011;18313;48.518;9.124;2022-08-20T09:13:42;5.00;;;3.30;;
31734;SDS011;18313;48.518;9.124;2022-08-20T09:16:10;4.40;;;3.25;;
31734;SDS011;18313;48.518;9.124;2022-08-20T09:18:38;5.53;;;3.22;;
31734;SDS011;18313;48.518;9.124;2022-08-20T09:21:05;4.90;;;3.08;;
31734;SDS011;18313;48.518;9.124;2022-08-20T09:23:33;4.03;;;3.40;;
31734;SDS011;18313;48.518;9.124;2022-08-20T09:26:00;5.18;;;3.15;;
31734;SDS011;18313;48.518;9.124;2022-08-20T09:28:26;4.28;;;3.10;;
31734;SDS011;18313;48.518;9.124;2022-08-20T09:31:00;4.70;;;3.40;;
31734;SDS011;18313;48.518;9.124;2022-08-20T09:33:29;5.03;;;2.83;;
31734;SDS011;18313;48.518;9.124;2022-08-20T09:35:56;4.38;;;3.10;;
31734;SDS011;18313;48.518;9.124;2022-08-20T09:38:23;4.15;;;3.03;;
31734;SDS011;18313;48.518;9.124;2022-08-20T09:40:50;4.18;;;3.08;;
31734;SDS011;18313;48.518;9.124;2022-08-20T09:43:17;4.70;;;3.00;;
31734;SDS011;18313;48.518;9.124;2022-08-20T09:45:44;4.20;;;3.03;;
31734;SDS011;18313;48.518;9.124;2022-08-20T09:48:10;4.50;;;3.05;;
31734;SDS011;18313;48.518;9.124;2022-08-20T09:50:40;6.47;;;3.15;;
31734;SDS011;18313;48.518;9.124;2022-08-20T09:53:11;3.60;;;2.53;;
31734;SDS011;18313;48.518;9.124;2022-08-20T09:55:39;4.28;;;2.92;;
31734;SDS011;18313;48.518;9.124;2022-08-20T09:58:16;4.25;;;2.50;;
31734;SDS011;18313;48.518;9.124;2022-08-20T10:00:56;7.07;;;2.90;;
31734;SDS011;18313;48.518;9.124;2022-08-20T10:03:26;3.13;;;2.47;;
31734;SDS011;18313;48.518;9.124;2022-08-20T10:05:53;4.68;;;2.92;;
31734;SDS011;18313;48.518;9.124;2022-08-20T10:08:19;3.78;;;3.03;;
31734;SDS011;18313;48.518;9.124;2022-08-20T10:10:46;4.85;;;2.80;;
31734;SDS011;18313;48.518;9.124;2022-08-20T10:13:13;4.13;;;2.90;;
31734;SDS011;18313;48.518;9.124;2022-08-20T10:15:41;4.72;;;2.20;;
31734;SDS011;18313;48.518;9.124;2022-08-20T10:18:09;6.43;;;2.45;;
31734;SDS011;18313;48.518;9.124;2022-08-20T10:20:37;4.10;;;1.60;;
31734;SDS011;18313;48.518;9.124;2022-08-20T10:23:05;4.30;;;1.92;;
31734;SDS011;18313;48.518;9.124;2022-08-20T10:25:32;7.72;;;2.20;;
31734;SDS011;18313;48.518;9.124;2022-08-20T10:27:59;4.82;;;1.90;;
31734;SDS011;18313;48.518;9.124;2022-08-20T10:30:26;4.10;;;1.80;;
31734;SDS011;18313;48.518;9.124;2022-08-20T10:32:53;3.25;;;1.95;;
31734;SDS011;18313;48.518;9.124;2022-08-20T10:35:20;6.63;;;2.70;;
31734;SDS011;18313;48.518;9.124;2022-08-20T10:37:47;4.80;;;2.72;;
31734;SDS011;18313;48.518;9.124;2022-08-20T10:40:14;5.97;;;2.20;;
31734;SDS011;18313;48.518;9.124;2022-08-20T10:42:42;7.75;;;2.25;;
31734;SDS011;18313;48.518;9.124;2022-08-20T10:45:10;5.38;;;2.20;;
31734;SDS011;18313;48.518;9.124;2022-08-20T10:47:38;4.28;;;1.90;;
31734;SDS011;18313;48.518;9.124;2022-08-20T10:50:07;2.63;;;1.80;;
31734;SDS011;18313;48.518;9.124;2022-08-20T10:52:37;3.30;;;1.65;;
31734;SDS011;18313;48.518;9.124;2022-08-20T10:55:05;2.10;;;1.40;;
31734;SDS011;18313;48.518;9.124;2022-08-20T10:57:32;2.72;;;1.70;;
31734;SDS011;18313;48.518;9.124;2022-08-20T10:59:59;2.45;;;1.50;;
31734;SDS011;18313;48.518;9.124;2022-08-20T11:02:27;4.93;;;2.30;;
31734;SDS011;18313;48.518;9.124;2022-08-20T11:04:55;7.53;;;1.92;;
31734;SDS011;18313;48.518;9.124;2022-08-20T11:07:26;3.05;;;1.30;;
31734;SDS011;18313;48.518;9.124;2022-08-20T11:10:18;2.97;;;1.00;;
31734;SDS011;18313;48.518;9.124;2022-08-20T11:12:46;4.65;;;1.27;;
31734;SDS011;18313;48.518;9.124;2022-08-20T11:15:14;23.00;;;2.55;;
31734;SDS011;18313;48.518;9.124;2022-08-20T11:17:41;16.42;;;2.75;;
31734;SDS011;18313;48.518;9.124;2022-08-20T11:20:10;5.75;;;1.23;;
31734;SDS011;18313;48.518;9.124;2022-08-20T11:22:39;3.97;;;1.45;;
31734;SDS011;18313;48.518;9.124;2022-08-20T11:25:06;3.83;;;1.20;;
31734;SDS011;18313;48.518;9.124;2022-08-20T11:27:35;2.78;;;1.20;;
31734;SDS011;18313;48.518;9.124;2022-08-20T11:30:05;6.88;;;1.17;;
31734;SDS011;18313;48.518;9.124;2022-08-20T11:32:34;3.45;;;1.10;;
31734;SDS011;18313;48.518;9.124;2022-08-20T11:35:01;2.53;;;1.00;;
31734;SDS011;18313;48.518;9.124;2022-08-20T11:37:49;3.63;;;1.40;;
31734;SDS011;18313;48.518;9.124;2022-08-20T11:40:16;3.17;;;1.20;;
31734;SDS011;18313;48.518;9.124;2022-08-20T11:42:44;3.95;;;1.40;;
31734;SDS011;18313;48.518;9.124;2022-08-20T11:45:32;2.47;;;1.00;;
31734;SDS011;18313;48.518;9.124;2022-08-20T11:48:03;3.03;;;1.33;;
31734;SDS011;18313;48.518;9.124;2022-08-20T11:50:30;5.53;;;1.40;;
31734;SDS011;18313;48.518;9.124;2022-08-20T11:52:57;2.28;;;1.20;;
31734;SDS011;18313;48.518;9.124;2022-08-20T11:55:26;2.95;;;1.20;;
31734;SDS011;18313;48.518;9.124;2022-08-20T11:57:55;2.38;;;1.20;;
31734;SDS011;18313;48.518;9.124;2022-08-20T12:00:26;2.60;;;1.33;;
31734;SDS011;18313;48.518;9.124;2022-08-20T12:03:02;3.30;;;1.70;;
31734;SDS011;18313;48.518;9.124;2022-08-20T12:05:33;1.92;;;1.20;;
31734;SDS011;18313;48.518;9.124;2022-08-20T12:08:00;4.20;;;1.50;;
31734;SDS011;18313;48.518;9.124;2022-08-20T12:10:28;2.65;;;1.38;;
31734;SDS011;18313;48.518;9.124;2022-08-20T12:12:55;4.95;;;1.70;;
31734;SDS011;18313;48.518;9.124;2022-08-20T12:15:23;4.45;;;1.88;;
31734;SDS011;18313;48.518;9.124;2022-08-20T12:17:52;3.15;;;1.60;;
31734;SDS011;18313;48.518;9.124;2022-08-20T12:20:19;2.67;;;1.83;;
31734;SDS011;18313;48.518;9.124;2022-08-20T12:22:48;2.63;;;1.50;;
31734;SDS011;18313;48.518;9.124;2022-08-20T12:25:15;6.07;;;1.65;;
31734;SDS011;18313;48.518;9.124;2022-08-20T12:27:42;3.28;;;1.60;;
31734;SDS011;18313;48.518;9.124;2022-08-20T12:30:10;3.60;;;1.85;;
31734;SDS011;18313;48.518;9.124;2022-08-20T12:32:43;2.90;;;1.70;;
31734;SDS011;18313;48.518;9.124;2022-08-20T12:35:10;3.70;;;1.90;;
31734;SDS011;18313;48.518;9.124;2022-08-20T12:37:38;2.63;;;1.80;;
31734;SDS011;18313;48.518;9.124;2022-08-20T12:40:07;3.38;;;1.98;;
31734;SDS011;18313;48.518;9.124;2022-08-20T12:42:37;3.85;;;1.35;;
31734;SDS011;18313;48.518;9.124;2022-08-20T12:45:05;2.25;;;1.50;;
31734;SDS011;18313;48.518;9.124;2022-08-20T12:47:34;3.40;;;1.23;;
31734;SDS011;18313;48.518;9.124;2022-08-20T12:50:09;3.10;;;1.23;;
31734;SDS011;18313;48.518;9.124;2022-08-20T12:52:41;1.88;;;1.10;;
31734;SDS011;18313;48.518;9.124;2022-08-20T12:55:08;1.67;;;1.00;;
31734;SDS011;18313;48.518;9.124;2022-08-20T12:57:38;3.17;;;1.20;;
31734;SDS011;18313;48.518;9.124;2022-08-20T13:00:10;4.38;;;1.10;;
31734;SDS011;18313;48.518;9.124;2022-08-20T13:02:49;3.38;;;1.00;;
31734;SDS011;18313;48.518;9.124;2022-08-20T13:05:17;2.15;;;1.10;;
31734;SDS011;18313;48.518;9.124;2022-08-20T13:07:44;1.58;;;1.10;;
31734;SDS011;18313;48.518;9.124;2022-08-20T13:10:13;1.70;;;0.90;;
31734;SDS011;18313;48.518;9.124;2022-08-20T13:12:43;1.77;;;0.88;;
31734;SDS011;18313;48.518;9.124;2022-08-20T13:15:10;1.48;;;1.00;;
31734;SDS011;18313;48.518;9.124;2022-08-20T13:17:37;3.20;;;0.90;;
31734;SDS011;18313;48.518;9.124;2022-08-20T13:20:09;1.60;;;1.00;;
31734;SDS011;18313;48.518;9.124;2022-08-20T13:22:39;1.65;;;1.00;;
31734;SDS011;18313;48.518;9.124;2022-08-20T13:25:07;2.58;;;0.98;;
31734;SDS011;18313;48.518;9.124;2022-08-20T13:27:34;1.60;;;0.95;;
31734;SDS011;18313;48.518;9.124;2022-08-20T13:30:05;1.25;;;0.70;;
31734;SDS011;18313;48.518;9.124;2022-08-20T13:32:34;1.52;;;0.98;;
31734;SDS011;18313;48.518;9.124;2022-08-20T13:35:01;1.52;;;0.93;;
31734;SDS011;18313;48.518;9.124;2022-08-20T13:37:28;2.13;;;0.95;;
31734;SDS011;18313;48.518;9.124;2022-08-20T13:39:56;1.05;;;0.80;;
31734;SDS011;18313;48.518;9.124;2022-08-20T13:42:24;1.88;;;0.90;;
31734;SDS011;18313;48.518;9.124;2022-08-20T13:44:51;1.00;;;0.80;;
31734;SDS011;18313;48.518;9.124;2022-08-20T13:47:20;2.75;;;0.90;;
31734;SDS011;18313;48.518;9.124;2022-08-20T13:49:59;1.17;;;0.82;;
31734;SDS011;18313;48.518;9.124;2022-08-20T13:52:31;1.15;;;0.70;;
31734;SDS011;18313;48.518;9.124;2022-08-20T13:55:01;0.90;;;0.60;;
31734;SDS011;18313;48.518;9.124;2022-08-20T13:57:32;1.83;;;0.93;;
31734;SDS011;18313;48.518;9.124;2022-08-20T13:59:59;2.38;;;0.80;;
31734;SDS011;18313;48.518;9.124;2022-08-20T14:02:26;2.05;;;0.70;;
31734;SDS011;18313;48.518;9.124;2022-08-20T14:04:54;2.42;;;1.00;;
31734;SDS011;18313;48.518;9.124;2022-08-20T14:07:25;1.15;;;0.85;;
31734;SDS011;18313;48.518;9.124;2022-08-20T14:10:03;1.38;;;0.85;;
31734;SDS011;18313;48.518;9.124;2022-08-20T14:12:35;1.35;;;0.90;;
31734;SDS011;18313;48.518;9.124;2022-08-20T14:15:03;1.40;;;0.88;;
31734;SDS011;18313;48.518;9.124;2022-08-20T14:17:32;2.17;;;0.85;;
31734;SDS011;18313;48.518;9.124;2022-08-20T14:20:12;3.00;;;0.90;;
31734;SDS011;18313;48.518;9.124;2022-08-20T14:22:43;1.90;;;0.80;;
31734;SDS011;18313;48.518;9.124;2022-08-20T14:25:11;1.88;;;0.70;;
31734;SDS011;18313;48.518;9.124;2022-08-20T14:27:40;2.58;;;0.90;;
31734;SDS011;18313;48.518;9.124;2022-08-20T14:30:15;2.30;;;1.00;;
31734;SDS011;18313;48.518;9.124;2022-08-20T14:32:44;3.10;;;0.90;;
31734;SDS011;18313;48.518;9.124;2022-08-20T14:35:12;1.30;;;0.70;;
31734;SDS011;18313;48.518;9.124;2022-08-20T14:37:40;1.33;;;0.73;;
31734;SDS011;18313;48.518;9.124;2022-08-20T14:40:09;2.28;;;1.13;;
31734;SDS011;18313;48.518;9.124;2022-08-20T14:42:40;1.50;;;0.82;;
31734;SDS011;18313;48.518;9.124;2022-08-20T14:45:11;0.77;;;0.70;;
31734;SDS011;18313;48.518;9.124;2022-08-20T14:47:44;1.23;;;0.80;;
31734;SDS011;18313;48.518;9.124;2022-08-20T14:50:28;1.27;;;0.80;;
31734;SDS011;18313;48.518;9.124;2022-08-20T14:52:57;1.15;;;0.70;;
31734;SDS011;18313;48.518;9.124;2022-08-20T14:55:26;1.30;;;0.60;;
31734;SDS011;18313;48.518;9.124;2022-08-20T14:57:56;1.20;;;0.75;;
31734;SDS011;18313;48.518;9.124;2022-08-20T15:00:24;1.10;;;0.77;;
31734;SDS011;18313;48.518;9.124;2022-08-20T15:02:53;1.17;;;0.70;;
31734;SDS011;18313;48.518;9.124;2022-08-20T15:05:20;2.22;;;0.70;;
31734;SDS011;18313;48.518;9.124;2022-08-20T15:07:49;1.13;;;0.80;;
31734;SDS011;18313;48.518;9.124;2022-08-20T15:10:21;2.10;;;0.73;;